Time;durP1;ratioP1;P1;durP2;ratioP2;P2;SDS_P1;SDS_P2;PMS_P1;PMS_P2;Temp;Humidity;BMP_temperature;BMP_pressure;BME280_temperature;BME280_humidity;BME280_pressure;Samples;Min_cycle;Max_cycle;Signal;HPM_P1;HPM_P2
2023/07/31 00:01:16;;;;;;;;;;;;;;;14.58;94.95;96585.47;5105423;28;19971;-76
2023/07/31 00:03:42;;;;;;;;;;;;;;;14.55;94.75;96583.31;5106219;28;19998;-77
2023/07/31 00:06:08;;;;;;;;;;;;;;;14.53;95.58;96584.53;5104972;28;19941;-78
2023/07/31 00:08:33;;;;;;;;;;;;;;;14.50;95.63;96585.03;5103322;28;19961;-75
2023/07/31 00:10:59;;;;;;;;;;;;;;;14.47;96.08;96588.94;5105929;28;19971;-73
2023/07/31 00:13:25;;;;;;;;;;;;;;;14.45;96.02;96592.84;5104675;28;20233;-71
2023/07/31 00:15:51;;;;;;;;;;;;;;;14.43;98.05;96595.75;5105725;28;19965;-71
2023/07/31 00:18:17;;;;;;;;;;;;;;;14.41;97.00;96595.19;5104976;28;19933;-72
2023/07/31 00:20:43;;;;;;;;;;;;;;;14.38;96.18;96591.19;5105709;28;19939;-72
2023/07/31 00:23:08;;;;;;;;;;;;;;;14.34;96.86;96597.97;5105062;28;19944;-72
2023/07/31 00:25:34;;;;;;;;;;;;;;;14.31;96.44;96595.00;5105865;28;19941;-75
2023/07/31 00:28:00;;;;;;;;;;;;;;;14.28;96.92;96593.66;5105542;28;19950;-72
2023/07/31 00:30:26;;;;;;;;;;;;;;;14.26;96.58;96593.09;5105718;28;19995;-72
2023/07/31 00:32:52;;;;;;;;;;;;;;;14.23;97.41;96592.75;5104016;28;20212;-71
2023/07/31 00:35:18;;;;;;;;;;;;;;;14.19;97.03;96593.22;5104906;28;19947;-71
2023/07/31 00:37:44;;;;;;;;;;;;;;;14.17;97.61;96600.59;5105047;28;19938;-71
2023/07/31 00:40:10;;;;;;;;;;;;;;;14.14;97.21;96589.69;5104795;28;19937;-72
2023/07/31 00:42:36;;;;;;;;;;;;;;;14.12;97.63;96594.41;5104980;28;19936;-72
2023/07/31 00:45:02;;;;;;;;;;;;;;;14.08;97.22;96586.16;5104275;28;19943;-75
2023/07/31 00:47:27;;;;;;;;;;;;;;;14.07;97.33;96589.03;5104692;28;19971;-75
2023/07/31 00:49:53;;;;;;;;;;;;;;;14.04;97.58;96590.31;5104499;28;20013;-75
2023/07/31 00:52:20;;;;;;;;;;;;;;;14.01;98.00;96601.34;5105368;28;19937;-74
2023/07/31 00:54:46;;;;;;;;;;;;;;;13.99;97.47;96592.84;5104532;28;19951;-75
2023/07/31 00:57:12;;;;;;;;;;;;;;;13.97;97.88;96590.44;5103325;28;19992;-75
2023/07/31 00:59:37;;;;;;;;;;;;;;;13.94;97.09;96588.31;5104461;28;19936;-76
2023/07/31 01:02:03;;;;;;;;;;;;;;;13.92;97.21;96590.38;5105248;28;20221;-73
2023/07/31 01:04:29;;;;;;;;;;;;;;;13.91;97.60;96587.97;5104415;28;19939;-74
2023/07/31 01:06:59;;;;;;;;;;;;;;;13.89;98.76;96590.81;5103868;28;19939;-73
2023/07/31 01:09:37;;;;;;;;;;;;;;;13.87;97.83;96582.34;5103031;28;19948;-72
2023/07/31 01:12:04;;;;;;;;;;;;;;;13.84;97.76;96572.28;5103902;28;19942;-72
2023/07/31 01:14:30;;;;;;;;;;;;;;;13.83;97.71;96564.59;5104142;28;19939;-73
2023/07/31 01:16:55;;;;;;;;;;;;;;;13.80;97.63;96565.88;5086818;28;19943;-73
2023/07/31 01:19:23;;;;;;;;;;;;;;;13.80;98.08;96565.88;5103001;28;19971;-75
2023/07/31 01:22:07;;;;;;;;;;;;;;;13.78;97.85;96568.75;5104011;28;19962;-75
2023/07/31 01:24:41;;;;;;;;;;;;;;;13.76;98.30;96570.81;5086688;28;19958;-74
2023/07/31 01:27:14;;;;;;;;;;;;;;;13.76;98.51;96572.66;5104963;28;19936;-75
2023/07/31 01:29:54;;;;;;;;;;;;;;;13.75;98.78;96563.13;5086885;28;19953;-74
2023/07/31 01:32:21;;;;;;;;;;;;;;;13.73;98.46;96558.13;5086733;28;19939;-74
2023/07/31 01:34:48;;;;;;;;;;;;;;;13.71;98.87;96562.00;5104350;28;20104;-76
2023/07/31 01:37:14;;;;;;;;;;;;;;;13.70;99.16;96558.56;5102770;28;20121;-74
2023/07/31 01:39:40;;;;;;;;;;;;;;;13.69;99.23;96556.16;5104110;28;19932;-75
2023/07/31 01:42:07;;;;;;;;;;;;;;;13.67;99.45;96547.69;5103803;28;19939;-80
2023/07/31 01:44:33;;;;;;;;;;;;;;;13.64;99.04;96543.69;5104024;28;20073;-83
2023/07/31 01:47:00;;;;;;;;;;;;;;;13.65;100.00;96550.59;5104266;28;20005;-79
2023/07/31 01:49:25;;;;;;;;;;;;;;;13.65;99.25;96540.03;5102564;28;19955;-79
2023/07/31 01:51:51;;;;;;;;;;;;;;;13.61;99.09;96544.19;5104664;28;20106;-79
2023/07/31 01:54:17;;;;;;;;;;;;;;;13.60;99.55;96543.34;5103961;28;20227;-79
2023/07/31 01:56:43;;;;;;;;;;;;;;;13.58;100.00;96540.16;5104291;28;19952;-77
2023/07/31 01:59:09;;;;;;;;;;;;;;;13.57;99.95;96540.41;5085812;28;19938;-80
2023/07/31 02:01:35;;;;;;;;;;;;;;;13.54;99.94;96549.59;5103774;28;19964;-79
2023/07/31 02:04:01;;;;;;;;;;;;;;;13.51;99.80;96541.34;5085730;28;19944;-78
2023/07/31 02:06:27;;;;;;;;;;;;;;;13.49;99.88;96541.56;5104373;28;19939;-80
2023/07/31 02:08:52;;;;;;;;;;;;;;;13.48;100.00;96536.53;5103660;28;19975;-79
2023/07/31 02:11:18;;;;;;;;;;;;;;;13.45;100.00;96535.16;5102650;28;19943;-79
2023/07/31 02:13:44;;;;;;;;;;;;;;;13.43;100.00;96531.97;5102293;28;19951;-79
2023/07/31 02:16:10;;;;;;;;;;;;;;;13.42;100.00;96526.91;5103620;28;19940;-75
2023/07/31 02:18:36;;;;;;;;;;;;;;;13.39;100.00;96520.28;5102611;28;19994;-85
2023/07/31 02:21:02;;;;;;;;;;;;;;;13.36;100.00;96512.88;5103279;28;19944;-82
2023/07/31 02:23:28;;;;;;;;;;;;;;;13.33;100.00;96518.59;5103097;28;19954;-83
2023/07/31 02:25:54;;;;;;;;;;;;;;;13.29;100.00;96522.72;5102299;28;19937;-83
2023/07/31 02:28:20;;;;;;;;;;;;;;;13.26;100.00;96516.06;5104248;28;19956;-83
2023/07/31 02:30:48;;;;;;;;;;;;;;;13.24;100.00;96518.13;5103513;28;19978;-82
2023/07/31 02:33:15;;;;;;;;;;;;;;;13.22;100.00;96512.28;5105706;28;19940;-72
2023/07/31 02:35:41;;;;;;;;;;;;;;;13.21;100.00;96515.97;5105889;28;19940;-83
2023/07/31 02:38:06;;;;;;;;;;;;;;;13.19;100.00;96515.41;5107383;28;19944;-77
2023/07/31 02:40:32;;;;;;;;;;;;;;;13.17;100.00;96515.63;5105821;28;20131;-80
2023/07/31 02:42:58;;;;;;;;;;;;;;;13.16;100.00;96518.47;5106623;28;20238;-78
2023/07/31 02:45:24;;;;;;;;;;;;;;;13.14;100.00;96516.06;5107543;28;19946;-77
2023/07/31 02:47:50;;;;;;;;;;;;;;;13.12;100.00;96510.28;5106690;28;19962;-80
2023/07/31 02:50:16;;;;;;;;;;;;;;;13.12;100.00;96507.63;5106966;28;20140;-80
2023/07/31 02:52:41;;;;;;;;;;;;;;;13.09;100.00;96502.03;5107491;28;19952;-74
2023/07/31 02:55:07;;;;;;;;;;;;;;;13.07;100.00;96498.81;5105466;28;20325;-83
2023/07/31 02:57:33;;;;;;;;;;;;;;;13.07;100.00;96490.94;5105698;28;20026;-83
2023/07/31 02:59:59;;;;;;;;;;;;;;;13.07;100.00;96496.19;5107495;28;19939;-85
2023/07/31 03:02:25;;;;;;;;;;;;;;;13.06;100.00;96497.22;5106597;28;19975;-85
2023/07/31 03:04:51;;;;;;;;;;;;;;;13.04;100.00;96491.38;5088472;28;19946;-83
2023/07/31 03:07:17;;;;;;;;;;;;;;;13.03;100.00;96492.41;5106037;28;19936;-84
2023/07/31 03:09:43;;;;;;;;;;;;;;;13.02;100.00;96494.25;5089120;28;20136;-77
2023/07/31 03:12:08;;;;;;;;;;;;;;;13.03;100.00;96500.31;5105893;28;19936;-74
2023/07/31 03:14:34;;;;;;;;;;;;;;;13.05;100.00;96498.25;5106014;28;19939;-72
2023/07/31 03:17:00;;;;;;;;;;;;;;;13.04;100.00;96494.00;5088889;28;20248;-72
2023/07/31 03:19:26;;;;;;;;;;;;;;;13.03;100.00;96498.47;5106296;28;19998;-72
2023/07/31 03:21:52;;;;;;;;;;;;;;;13.03;100.00;96492.41;5106179;28;19958;-72
2023/07/31 03:24:18;;;;;;;;;;;;;;;13.01;100.00;96490.00;5106660;28;19945;-72
2023/07/31 03:26:44;;;;;;;;;;;;;;;13.00;100.00;96488.44;5106174;28;19948;-72
2023/07/31 03:29:09;;;;;;;;;;;;;;;13.00;100.00;96491.84;5105830;28;19984;-82
2023/07/31 03:31:35;;;;;;;;;;;;;;;12.99;100.00;96489.44;5088405;28;19943;-75
2023/07/31 03:34:01;;;;;;;;;;;;;;;12.99;100.00;96494.72;5105829;28;19935;-75
2023/07/31 03:36:27;;;;;;;;;;;;;;;13.00;100.00;96496.31;5104738;28;19964;-74
2023/07/31 03:38:53;;;;;;;;;;;;;;;12.99;100.00;96492.06;5106454;28;19944;-74
2023/07/31 03:41:19;;;;;;;;;;;;;;;12.96;100.00;96498.59;5105433;28;20146;-74
2023/07/31 03:43:46;;;;;;;;;;;;;;;12.97;100.00;96491.50;5105681;28;19974;-74
2023/07/31 03:46:12;;;;;;;;;;;;;;;12.96;100.00;96498.59;5106548;28;19938;-78
2023/07/31 03:48:38;;;;;;;;;;;;;;;12.96;100.00;96498.59;5104498;28;20173;-76
2023/07/31 03:51:04;;;;;;;;;;;;;;;12.96;100.00;96498.59;5104549;28;20225;-71
2023/07/31 03:53:30;;;;;;;;;;;;;;;12.96;100.00;96500.44;5106271;28;19941;-71
2023/07/31 03:55:55;;;;;;;;;;;;;;;12.98;100.00;96498.38;5105006;28;19985;-71
2023/07/31 03:58:21;;;;;;;;;;;;;;;12.98;100.00;96493.13;5105718;28;19982;-71
2023/07/31 04:00:47;;;;;;;;;;;;;;;13.00;100.00;96498.97;5105329;28;19939;-71
2023/07/31 04:03:13;;;;;;;;;;;;;;;13.02;100.00;96494.25;5104150;28;19952;-71
2023/07/31 04:05:39;;;;;;;;;;;;;;;13.04;100.00;96491.38;5106056;28;19938;-74
2023/07/31 04:08:05;;;;;;;;;;;;;;;13.04;100.00;96481.66;5104130;28;20221;-76
2023/07/31 04:10:33;;;;;;;;;;;;;;;13.06;100.00;96482.22;5103979;28;19959;-76
2023/07/31 04:13:00;;;;;;;;;;;;;;;13.08;100.00;96488.06;5104980;28;19938;-75
2023/07/31 04:15:26;;;;;;;;;;;;;;;13.11;100.00;96486.78;5105027;28;19942;-75
2023/07/31 04:17:52;;;;;;;;;;;;;;;13.17;100.00;96480.59;5105775;28;19958;-75
2023/07/31 04:20:17;;;;;;;;;;;;;;;13.24;100.00;96488.38;5104854;28;19967;-75
2023/07/31 04:22:43;;;;;;;;;;;;;;;13.29;100.00;96475.31;5105082;28;19948;-75
2023/07/31 04:25:09;;;;;;;;;;;;;;;13.37;100.00;96475.75;5105507;28;19975;-73
2023/07/31 04:27:35;;;;;;;;;;;;;;;13.45;100.00;96476.41;5103656;28;19940;-71
2023/07/31 04:30:01;;;;;;;;;;;;;;;13.50;100.00;96479.94;5104379;28;19972;-70
2023/07/31 04:32:27;;;;;;;;;;;;;;;13.55;100.00;96493.22;5104887;28;19940;-70
2023/07/31 04:34:52;;;;;;;;;;;;;;;13.58;100.00;96482.19;5105363;28;19947;-71
2023/07/31 04:37:18;;;;;;;;;;;;;;;13.57;100.00;96477.16;5104767;28;19939;-71
2023/07/31 04:39:44;;;;;;;;;;;;;;;13.56;100.00;96483.47;5104688;28;20131;-71
2023/07/31 04:42:10;;;;;;;;;;;;;;;13.56;100.00;96478.19;5104264;28;19944;-77
2023/07/31 04:44:36;;;;;;;;;;;;;;;13.56;100.00;96475.56;5103518;28;19951;-77
2023/07/31 04:47:02;;;;;;;;;;;;;;;13.55;100.00;96472.13;5103477;28;19973;-74
2023/07/31 04:49:28;;;;;;;;;;;;;;;13.55;100.00;96472.13;5104132;28;19954;-74
2023/07/31 04:51:54;;;;;;;;;;;;;;;13.57;100.00;96485.06;5105311;28;20014;-74
2023/07/31 04:54:19;;;;;;;;;;;;;;;13.59;100.00;96483.00;5103699;28;19937;-74
2023/07/31 04:56:45;;;;;;;;;;;;;;;13.60;100.00;96474.84;5104366;28;20043;-73
2023/07/31 04:59:11;;;;;;;;;;;;;;;13.64;100.00;96474.38;5103353;28;19984;-74
2023/07/31 05:01:37;;;;;;;;;;;;;;;13.67;100.00;96474.72;5104111;28;19941;-79
2023/07/31 05:04:03;;;;;;;;;;;;;;;13.71;100.00;96472.41;5103296;28;19943;-74
2023/07/31 05:06:29;;;;;;;;;;;;;;;13.76;100.00;96483.03;5103317;28;19973;-74
2023/07/31 05:08:55;;;;;;;;;;;;;;;13.82;100.00;96484.72;5104815;28;19949;-75
2023/07/31 05:11:20;;;;;;;;;;;;;;;13.88;100.00;96480.31;5104755;28;20212;-74
2023/07/31 05:13:46;;;;;;;;;;;;;;;13.94;100.00;96474.94;5103183;28;19936;-74
2023/07/31 05:16:12;;;;;;;;;;;;;;;14.01;100.00;96474.78;5104297;28;20143;-74
2023/07/31 05:18:38;;;;;;;;;;;;;;;14.08;100.00;96469.34;5103560;28;19968;-72
2023/07/31 05:21:04;;;;;;;;;;;;;;;14.17;100.00;96463.44;5086234;28;19949;-72
2023/07/31 05:23:32;;;;;;;;;;;;;;;14.28;100.00;96455.66;5104718;28;19933;-80
2023/07/31 05:26:09;;;;;;;;;;;;;;;14.41;100.00;96476.44;5104594;28;19942;-81
2023/07/31 05:28:36;;;;;;;;;;;;;;;14.56;100.00;96467.97;5104907;28;19930;-83
2023/07/31 05:31:02;;;;;;;;;;;;;;;14.70;100.00;96466.59;5103008;28;19940;-80
2023/07/31 05:33:28;;;;;;;;;;;;;;;14.82;100.00;96469.94;5104077;28;19952;-80
2023/07/31 05:35:54;;;;;;;;;;;;;;;14.91;100.00;96464.22;5104804;28;19947;-82
2023/07/31 05:38:20;;;;;;;;;;;;;;;14.97;99.67;96455.31;5086099;28;19941;-74
2023/07/31 05:40:46;;;;;;;;;;;;;;;15.09;100.00;96463.13;5104623;28;19943;-74
2023/07/31 05:43:12;;;;;;;;;;;;;;;15.22;100.00;96463.56;5102854;28;19963;-75
2023/07/31 05:45:38;;;;;;;;;;;;;;;15.29;100.00;96471.28;5103397;28;20209;-77
2023/07/31 05:48:04;;;;;;;;;;;;;;;15.28;99.32;96468.88;5103939;28;19946;-75
2023/07/31 05:50:30;;;;;;;;;;;;;;;15.17;98.49;96466.13;5104674;28;19952;-74
2023/07/31 05:52:56;;;;;;;;;;;;;;;15.09;100.00;96465.75;5103846;28;19941;-74
2023/07/31 05:55:21;;;;;;;;;;;;;;;15.02;100.00;96479.94;5104777;28;19990;-74
2023/07/31 05:57:47;;;;;;;;;;;;;;;14.96;100.00;96465.09;5103880;28;20019;-72
2023/07/31 06:00:13;;;;;;;;;;;;;;;14.94;100.00;96461.09;5102755;28;19943;-74
2023/07/31 06:02:39;;;;;;;;;;;;;;;14.91;100.00;96464.22;5104589;28;20258;-74
2023/07/31 06:05:08;;;;;;;;;;;;;;;14.91;100.00;96466.84;5103518;28;19940;-73
2023/07/31 06:07:34;;;;;;;;;;;;;;;14.91;100.00;96466.84;5106764;28;20130;-74
2023/07/31 06:10:05;;;;;;;;;;;;;;;14.87;100.00;96458.63;5106447;28;19987;-73
2023/07/31 06:12:31;;;;;;;;;;;;;;;14.85;100.00;96460.72;5108123;28;19942;-75
2023/07/31 06:14:57;;;;;;;;;;;;;;;14.88;100.00;96467.34;5107516;28;19949;-71
2023/07/31 06:17:23;;;;;;;;;;;;;;;14.92;100.00;96471.09;5107018;28;19960;-80
2023/07/31 06:19:49;;;;;;;;;;;;;;;15.02;100.00;96463.31;5107216;28;20041;-80
2023/07/31 06:22:15;;;;;;;;;;;;;;;15.23;100.00;96454.56;5106268;28;19945;-80
2023/07/31 06:24:41;;;;;;;;;;;;;;;15.48;100.00;96460.41;5107400;28;20150;-79
2023/07/31 06:27:07;;;;;;;;;;;;;;;15.70;100.00;96458.50;5107326;28;19972;-79
2023/07/31 06:29:33;;;;;;;;;;;;;;;15.82;100.00;96456.53;5106174;28;20267;-81
2023/07/31 06:31:59;;;;;;;;;;;;;;;15.96;100.00;96451.63;5106053;28;19988;-73
2023/07/31 06:34:25;;;;;;;;;;;;;;;16.10;99.63;96444.06;5107203;28;19941;-76
2023/07/31 06:36:51;;;;;;;;;;;;;;;16.10;95.76;96424.75;5089818;28;19938;-79
2023/07/31 06:39:16;;;;;;;;;;;;;;;16.07;94.07;96418.13;5105875;28;19945;-78
2023/07/31 06:41:43;;;;;;;;;;;;;;;16.03;92.41;96411.75;5105910;28;19949;-78
2023/07/31 06:44:10;;;;;;;;;;;;;;;16.00;92.44;96422.81;5089829;28;19944;-77
2023/07/31 06:46:35;;;;;;;;;;;;;;;16.00;93.34;96436.03;5106944;28;19940;-78
2023/07/31 06:49:01;;;;;;;;;;;;;;;15.99;91.85;96422.03;5107140;28;19953;-79
2023/07/31 06:51:27;;;;;;;;;;;;;;;16.07;92.08;96430.56;5106830;28;19942;-70
2023/07/31 06:53:53;;;;;;;;;;;;;;;16.17;92.27;96433.28;5088800;28;19955;-75
2023/07/31 06:56:21;;;;;;;;;;;;;;;16.22;91.38;96442.03;5107570;28;19959;-74
2023/07/31 06:58:46;;;;;;;;;;;;;;;16.25;90.35;96432.78;5105814;28;20130;-75
2023/07/31 07:01:12;;;;;;;;;;;;;;;16.24;89.91;96432.00;5106459;28;19944;-75
2023/07/31 07:03:38;;;;;;;;;;;;;;;16.24;89.98;96431.19;5106672;28;19946;-75
2023/07/31 07:06:04;;;;;;;;;;;;;;;16.29;92.29;96447.09;5107187;28;19946;-75
2023/07/31 07:08:30;;;;;;;;;;;;;;;16.36;91.17;96433.69;5105479;28;19945;-75
2023/07/31 07:10:56;;;;;;;;;;;;;;;16.40;88.24;96413.59;5105323;28;19960;-79
2023/07/31 07:13:22;;;;;;;;;;;;;;;16.49;89.14;96430.56;5105429;28;19946;-77
2023/07/31 07:15:49;;;;;;;;;;;;;;;16.67;88.12;96418.75;5106033;28;19959;-78
2023/07/31 07:18:14;;;;;;;;;;;;;;;16.83;87.65;96406.41;5106518;28;19939;-79
2023/07/31 07:20:45;;;;;;;;;;;;;;;16.90;86.10;96393.72;5107121;28;20151;-78
2023/07/31 07:23:11;;;;;;;;;;;;;;;16.90;83.70;96383.13;5105714;28;19945;-78
2023/07/31 07:25:37;;;;;;;;;;;;;;;16.97;85.61;96396.16;5107015;28;19994;-79
2023/07/31 07:28:03;;;;;;;;;;;;;;;17.03;85.51;96387.94;5106219;28;20121;-70
2023/07/31 07:30:29;;;;;;;;;;;;;;;17.03;86.92;96403.06;5106365;28;19956;-76
2023/07/31 07:32:55;;;;;;;;;;;;;;;16.99;83.61;96380.78;5106615;28;19935;-79
2023/07/31 07:35:22;;;;;;;;;;;;;;;17.01;81.90;96370.72;5106578;28;20030;-79
2023/07/31 07:37:50;;;;;;;;;;;;;;;17.08;81.64;96365.97;5105729;28;19948;-80
2023/07/31 07:40:16;;;;;;;;;;;;;;;17.10;81.90;96371.81;5105844;28;19936;-81
2023/07/31 07:42:42;;;;;;;;;;;;;;;17.15;79.81;96358.56;5105340;28;19939;-80
2023/07/31 07:45:08;;;;;;;;;;;;;;;17.30;80.52;96371.03;5104658;28;19946;-79
2023/07/31 07:47:34;;;;;;;;;;;;;;;17.38;79.79;96365.22;5106317;28;19936;-72
2023/07/31 07:50:00;;;;;;;;;;;;;;;17.41;79.28;96353.31;5105358;28;19959;-71
2023/07/31 07:52:26;;;;;;;;;;;;;;;17.68;77.40;96333.69;5104546;28;19981;-71
2023/07/31 07:54:52;;;;;;;;;;;;;;;17.84;76.02;96327.34;5105028;28;19938;-71
2023/07/31 07:57:18;;;;;;;;;;;;;;;17.87;76.78;96331.31;5105751;28;20138;-71
2023/07/31 07:59:44;;;;;;;;;;;;;;;17.98;80.07;96352.28;5106049;28;19950;-71
2023/07/31 08:02:09;;;;;;;;;;;;;;;18.09;76.51;96331.84;5105508;28;19940;-71
2023/07/31 08:04:35;;;;;;;;;;;;;;;18.33;76.82;96329.41;5105573;28;19939;-75
2023/07/31 08:07:01;;;;;;;;;;;;;;;18.44;75.02;96312.38;5105100;28;19949;-79
2023/07/31 08:09:27;;;;;;;;;;;;;;;18.60;73.15;96294.50;5105318;28;19964;-78
2023/07/31 08:11:54;;;;;;;;;;;;;;;18.74;74.92;96315.16;5105590;28;19942;-78
2023/07/31 08:14:20;;;;;;;;;;;;;;;18.84;73.86;96307.19;5105494;28;19941;-78
2023/07/31 08:16:46;;;;;;;;;;;;;;;18.98;74.44;96305.50;5105621;28;19949;-78
2023/07/31 08:19:11;;;;;;;;;;;;;;;19.10;70.25;96281.22;5104938;28;19968;-78
2023/07/31 08:21:37;;;;;;;;;;;;;;;19.27;72.29;96291.47;5105934;28;19947;-79
2023/07/31 08:24:03;;;;;;;;;;;;;;;19.45;75.13;96320.06;5105129;28;20198;-80
2023/07/31 08:26:29;;;;;;;;;;;;;;;19.50;70.09;96273.22;5105365;28;19939;-75
2023/07/31 08:28:55;;;;;;;;;;;;;;;19.56;72.31;96291.53;5104262;28;20008;-75
2023/07/31 08:31:21;;;;;;;;;;;;;;;19.64;71.71;96290.13;5086797;28;19957;-76
2023/07/31 08:33:47;;;;;;;;;;;;;;;19.66;70.70;96290.66;5104654;28;20288;-75
2023/07/31 08:36:13;;;;;;;;;;;;;;;19.81;71.51;96295.06;5104841;28;19947;-74
2023/07/31 08:38:39;;;;;;;;;;;;;;;19.94;70.18;96288.28;5086784;28;19952;-76
2023/07/31 08:41:05;;;;;;;;;;;;;;;20.10;68.03;96271.09;5105572;28;19936;-75
2023/07/31 08:43:32;;;;;;;;;;;;;;;20.06;69.73;96297.47;5105385;28;20002;-75
2023/07/31 08:45:58;;;;;;;;;;;;;;;19.98;69.31;96292.75;5086633;28;19945;-78
2023/07/31 08:48:24;;;;;;;;;;;;;;;19.92;71.63;96314.41;5105261;28;19985;-79
2023/07/31 08:50:51;;;;;;;;;;;;;;;19.90;69.26;96293.38;5087199;28;20015;-78
2023/07/31 08:53:17;;;;;;;;;;;;;;;19.94;67.12;96289.06;5103489;28;19935;-79
2023/07/31 08:55:44;;;;;;;;;;;;;;;20.06;69.32;96308.13;5104994;28;20148;-80
2023/07/31 08:58:10;;;;;;;;;;;;;;;20.24;69.54;96309.28;5104491;28;19939;-83
2023/07/31 09:00:36;;;;;;;;;;;;;;;20.43;69.15;96304.00;5105281;28;20216;-84
2023/07/31 09:03:02;;;;;;;;;;;;;;;20.61;68.51;96309.69;5104072;28;19942;-83
2023/07/31 09:05:30;;;;;;;;;;;;;;;20.90;65.26;96303.47;5104402;28;20224;-84
2023/07/31 09:07:56;;;;;;;;;;;;;;;21.01;68.47;96318.22;5104013;28;19938;-83
2023/07/31 09:10:22;;;;;;;;;;;;;;;21.02;64.63;96301.94;5103806;28;19955;-84
2023/07/31 09:12:49;;;;;;;;;;;;;;;20.92;64.32;96309.31;5103867;28;19960;-83
2023/07/31 09:15:15;;;;;;;;;;;;;;;20.79;67.04;96314.25;5104088;28;19941;-84
2023/07/31 09:17:41;;;;;;;;;;;;;;;20.56;66.32;96313.19;5103100;28;19938;-74
2023/07/31 09:20:14;;;;;;;;;;;;;;;20.45;68.65;96331.16;5102900;28;20009;-76
2023/07/31 09:22:40;;;;;;;;;;;;;;;20.24;67.18;96322.59;5104223;28;19944;-75
2023/07/31 09:25:25;;;;;;;;;;;;;;;20.13;68.23;96328.28;5104388;28;20020;-74
2023/07/31 09:27:58;;;;;;;;;;;;;;;20.08;69.26;96337.13;5103775;28;19947;-74
2023/07/31 09:30:24;;;;;;;;;;;;;;;20.07;67.85;96319.56;5104091;28;19957;-74
2023/07/31 09:32:50;;;;;;;;;;;;;;;19.98;68.40;96323.91;5104103;28;19947;-74
2023/07/31 09:35:27;;;;;;;;;;;;;;;19.91;67.66;96316.28;5086978;28;19980;-74
2023/07/31 09:37:54;;;;;;;;;;;;;;;19.84;68.49;96321.94;5103346;28;19941;-79
2023/07/31 09:40:30;;;;;;;;;;;;;;;19.77;68.04;96307.34;5105715;28;20136;-74
2023/07/31 09:42:57;;;;;;;;;;;;;;;19.68;65.58;96286.63;5108794;28;19938;-75
2023/07/31 09:45:23;;;;;;;;;;;;;;;19.63;67.26;96289.34;5090897;28;19942;-75
2023/07/31 09:47:49;;;;;;;;;;;;;;;19.75;69.14;96307.63;5090824;28;19942;-75
2023/07/31 09:50:15;;;;;;;;;;;;;;;19.93;69.00;96292.81;5090000;28;20252;-74
2023/07/31 09:52:41;;;;;;;;;;;;;;;20.28;66.50;96283.69;5107599;28;19948;-74
2023/07/31 09:55:08;;;;;;;;;;;;;;;20.46;65.92;96276.00;5108009;28;20215;-82
2023/07/31 09:57:36;;;;;;;;;;;;;;;20.64;65.18;96272.63;5107945;28;20144;-77
2023/07/31 10:00:02;;;;;;;;;;;;;;;20.81;66.92;96268.66;5106843;28;19943;-78
2023/07/31 10:02:29;;;;;;;;;;;;;;;21.13;64.34;96248.47;5108428;28;19941;-77
2023/07/31 10:04:58;;;;;;;;;;;;;;;21.44;65.55;96256.78;5108636;28;19939;-77
2023/07/31 10:07:25;;;;;;;;;;;;;;;21.77;62.21;96235.44;5106662;28;20118;-78
2023/07/31 10:09:51;;;;;;;;;;;;;;;21.92;60.44;96245.81;5106592;28;20116;-75
2023/07/31 10:12:19;;;;;;;;;;;;;;;22.03;60.96;96241.09;5106772;28;19943;-78
2023/07/31 10:14:45;;;;;;;;;;;;;;;21.96;58.20;96230.78;5072290;28;20221;-84
2023/07/31 10:17:11;;;;;;;;;;;;;;;21.95;59.07;96239.91;5073029;28;19982;-81
2023/07/31 10:19:38;;;;;;;;;;;;;;;21.84;59.88;96241.19;5045310;28;20178;-80
2023/07/31 10:22:04;;;;;;;;;;;;;;;21.62;59.24;96239.94;5045940;28;20047;-82
2023/07/31 10:24:31;;;;;;;;;;;;;;;21.51;58.82;96241.22;5045494;28;19944;-81
2023/07/31 10:26:58;;;;;;;;;;;;;;;21.47;61.27;96248.22;5046147;28;19940;-80
2023/07/31 10:29:24;;;;;;;;;;;;;;;21.40;61.11;96243.25;5045847;28;19941;-78
2023/07/31 10:31:50;;;;;;;;;;;;;;;21.38;61.22;96244.63;5045439;28;19968;-80
2023/07/31 10:34:16;;;;;;;;;;;;;;;21.37;62.09;96257.16;5045658;28;19953;-74
2023/07/31 10:36:42;;;;;;;;;;;;;;;21.38;61.69;96247.28;5045175;28;20157;-75
2023/07/31 10:39:35;;;;;;;;;;;;;;;21.36;63.01;96255.56;5045071;28;19939;-74
2023/07/31 10:42:09;;;;;;;;;;;;;;;21.36;62.66;96241.44;5026845;28;20217;-74
2023/07/31 10:44:35;;;;;;;;;;;;;;;21.32;61.75;96235.13;5045815;28;20257;-74
2023/07/31 10:47:01;;;;;;;;;;;;;;;21.28;60.13;96217.00;5048420;28;19941;-74
2023/07/31 10:49:29;;;;;;;;;;;;;;;21.29;62.56;96239.13;5065710;28;19938;-78
2023/07/31 10:51:55;;;;;;;;;;;;;;;21.32;61.83;96235.13;5047312;28;19953;-74
2023/07/31 10:54:21;;;;;;;;;;;;;;;21.39;62.63;96220.31;5048099;28;19947;-72
2023/07/31 10:56:50;;;;;;;;;;;;;;;21.56;62.04;96217.09;5080183;28;19965;-72
2023/07/31 10:59:17;;;;;;;;;;;;;;;21.80;61.97;96206.28;5106022;28;19937;-72
2023/07/31 11:01:53;;;;;;;;;;;;;;;22.19;60.31;96209.53;5088734;28;19940;-72
2023/07/31 11:04:24;;;;;;;;;;;;;;;22.36;59.22;96200.94;5106989;28;19949;-72
2023/07/31 11:07:00;;;;;;;;;;;;;;;22.37;59.16;96202.53;5089386;28;19972;-72
2023/07/31 11:09:30;;;;;;;;;;;;;;;22.33;60.59;96201.53;5089368;28;20110;-79
2023/07/31 11:11:56;;;;;;;;;;;;;;;22.23;61.23;96210.53;5106101;28;19953;-71
2023/07/31 11:14:22;;;;;;;;;;;;;;;22.04;61.72;96219.41;5088487;28;19953;-72
2023/07/31 11:16:51;;;;;;;;;;;;;;;21.93;61.20;96215.38;5106133;28;20248;-72
2023/07/31 11:19:24;;;;;;;;;;;;;;;21.88;62.26;96221.59;5106262;28;19981;-72
2023/07/31 11:21:53;;;;;;;;;;;;;;;21.69;61.23;96226.22;5105362;28;19937;-72
2023/07/31 11:24:19;;;;;;;;;;;;;;;21.58;61.33;96227.50;5105126;28;19944;-72
2023/07/31 11:26:49;;;;;;;;;;;;;;;21.54;62.67;96227.28;5106336;28;19948;-71
2023/07/31 11:29:15;;;;;;;;;;;;;;;21.48;62.47;96223.09;5105129;28;19938;-82
2023/07/31 11:31:45;;;;;;;;;;;;;;;21.38;60.52;96210.72;5106686;28;19957;-84
2023/07/31 11:34:10;;;;;;;;;;;;;;;21.28;61.38;96217.00;5105946;28;19941;-82
2023/07/31 11:36:36;;;;;;;;;;;;;;;21.24;63.12;96233.91;5106118;28;20124;-83
2023/07/31 11:39:06;;;;;;;;;;;;;;;21.27;62.94;96235.97;5105636;28;20209;-83
2023/07/31 11:41:32;;;;;;;;;;;;;;;21.29;62.35;96218.59;5105725;28;19939;-82
2023/07/31 11:44:01;;;;;;;;;;;;;;;21.34;62.71;96236.41;5087928;28;19951;-83
2023/07/31 11:46:30;;;;;;;;;;;;;;;21.40;63.84;96229.13;5106480;28;20111;-82
2023/07/31 11:48:59;;;;;;;;;;;;;;;21.46;62.06;96220.75;5104731;28;19946;-83
2023/07/31 11:51:25;;;;;;;;;;;;;;;21.49;63.41;96212.16;5105173;28;19963;-82
2023/07/31 11:53:53;;;;;;;;;;;;;;;21.45;62.80;96202.38;5105775;28;19934;-83
2023/07/31 11:56:20;;;;;;;;;;;;;;;21.31;63.54;96191.63;5104513;28;20141;-83
2023/07/31 11:58:47;;;;;;;;;;;;;;;21.13;64.47;96189.81;5105705;28;19950;-83
2023/07/31 12:01:14;;;;;;;;;;;;;;;20.98;67.16;96206.84;5105645;28;20131;-83
2023/07/31 12:03:42;;;;;;;;;;;;;;;20.90;70.52;96210.94;5105081;28;20240;-87
2023/07/31 12:06:08;;;;;;;;;;;;;;;20.91;70.25;96206.41;5105333;28;19946;-72
2023/07/31 12:08:34;;;;;;;;;;;;;;;20.88;70.18;96223.78;5104540;28;19944;-73
2023/07/31 12:11:09;;;;;;;;;;;;;;;20.82;67.89;96207.06;5105026;28;19958;-73
2023/07/31 12:13:35;;;;;;;;;;;;;;;20.87;71.77;96207.00;5105023;28;19943;-73
2023/07/31 12:16:03;;;;;;;;;;;;;;;20.96;70.12;96196.47;5104343;28;19937;-73
2023/07/31 12:18:30;;;;;;;;;;;;;;;21.04;71.13;96203.00;5086983;28;19972;-73
2023/07/31 12:20:59;;;;;;;;;;;;;;;21.11;67.52;96178.66;5105788;28;19943;-73
2023/07/31 12:23:30;;;;;;;;;;;;;;;21.20;68.95;96179.56;5087979;28;19946;-74
2023/07/31 12:26:23;;;;;;;;;;;;;;;21.42;67.95;96177.06;5104785;28;19937;-84
2023/07/31 12:28:50;;;;;;;;;;;;;;;21.72;69.54;96176.81;5100979;28;19947;-84
2023/07/31 12:31:21;;;;;;;;;;;;;;;21.94;68.96;96168.09;5103868;28;19962;-84
2023/07/31 12:33:47;;;;;;;;;;;;;;;22.05;65.88;96158.81;5105081;28;19934;-84
2023/07/31 12:36:14;;;;;;;;;;;;;;;22.00;63.26;96140.22;5105041;28;20120;-84
2023/07/31 12:38:40;;;;;;;;;;;;;;;21.94;65.12;96146.75;5104982;28;20245;-84
2023/07/31 12:41:06;;;;;;;;;;;;;;;22.13;64.46;96138.63;5104303;28;19946;-84